sensor_id;sensor_type;location;lat;lon;timestamp;temperature;humidity
43087;DHT22;28708;52.224;6.924;2023-09-12T00:01:41;21.00;99.90
43087;DHT22;28708;52.224;6.924;2023-09-12T00:04:07;20.90;99.90
43087;DHT22;28708;52.224;6.924;2023-09-12T00:06:32;20.90;99.90
43087;DHT22;28708;52.224;6.924;2023-09-12T00:08:58;20.80;99.90
43087;DHT22;28708;52.224;6.924;2023-09-12T00:11:24;20.70;99.90
43087;DHT22;28708;52.224;6.924;2023-09-12T00:13:51;20.70;99.90
43087;DHT22;28708;52.224;6.924;2023-09-12T00:16:17;20.70;99.90
43087;DHT22;28708;52.224;6.924;2023-09-12T00:18:43;20.70;99.90
43087;DHT22;28708;52.224;6.924;2023-09-12T00:21:09;20.60;99.90
43087;DHT22;28708;52.224;6.924;2023-09-12T00:23:35;20.60;99.90
43087;DHT22;28708;52.224;6.924;2023-09-12T00:26:01;20.60;99.90
43087;DHT22;28708;52.224;6.924;2023-09-12T00:28:27;20.50;99.90
43087;DHT22;28708;52.224;6.924;2023-09-12T00:30:52;20.50;99.90
43087;DHT22;28708;52.224;6.924;2023-09-12T00:33:18;20.50;99.90
43087;DHT22;28708;52.224;6.924;2023-09-12T00:35:44;20.60;99.90
43087;DHT22;28708;52.224;6.924;2023-09-12T00:38:10;20.60;99.90
43087;DHT22;28708;52.224;6.924;2023-09-12T00:40:37;20.70;99.90
43087;DHT22;28708;52.224;6.924;2023-09-12T00:43:03;20.80;99.90
43087;DHT22;28708;52.224;6.924;2023-09-12T00:45:29;20.80;99.90
43087;DHT22;28708;52.224;6.924;2023-09-12T00:47:57;20.70;99.90
43087;DHT22;28708;52.224;6.924;2023-09-12T00:50:24;20.60;99.90
43087;DHT22;28708;52.224;6.924;2023-09-12T00:52:51;20.40;99.90
43087;DHT22;28708;52.224;6.924;2023-09-12T00:55:17;20.20;99.90
43087;DHT22;28708;52.224;6.924;2023-09-12T00:57:43;20.30;99.90
43087;DHT22;28708;52.224;6.924;2023-09-12T01:00:12;20.20;99.90
43087;DHT22;28708;52.224;6.924;2023-09-12T01:02:39;20.00;99.90
43087;DHT22;28708;52.224;6.924;2023-09-12T01:05:07;20.00;99.90
43087;DHT22;28708;52.224;6.924;2023-09-12T01:07:34;20.20;99.90
43087;DHT22;28708;52.224;6.924;2023-09-12T01:10:01;20.10;99.90
43087;DHT22;28708;52.224;6.924;2023-09-12T01:12:29;19.70;99.90
43087;DHT22;28708;52.224;6.924;2023-09-12T01:14:55;19.60;99.90
43087;DHT22;28708;52.224;6.924;2023-09-12T01:17:20;19.30;99.90
43087;DHT22;28708;52.224;6.924;2023-09-12T01:19:46;19.10;99.90
43087;DHT22;28708;52.224;6.924;2023-09-12T01:27:55;19.00;99.90
43087;DHT22;28708;52.224;6.924;2023-09-12T01:30:22;18.80;99.90
43087;DHT22;28708;52.224;6.924;2023-09-12T01:32:50;19.00;99.90
43087;DHT22;28708;52.224;6.924;2023-09-12T01:35:17;19.20;99.90
43087;DHT22;28708;52.224;6.924;2023-09-12T01:37:42;19.10;99.90
43087;DHT22;28708;52.224;6.924;2023-09-12T01:40:09;19.00;99.90
43087;DHT22;28708;52.224;6.924;2023-09-12T01:42:37;19.00;99.90
43087;DHT22;28708;52.224;6.924;2023-09-12T01:45:04;19.10;99.90
43087;DHT22;28708;52.224;6.924;2023-09-12T01:47:31;19.30;99.90
43087;DHT22;28708;52.224;6.924;2023-09-12T01:50:01;19.30;99.90
43087;DHT22;28708;52.224;6.924;2023-09-12T01:52:28;19.30;99.90
43087;DHT22;28708;52.224;6.924;2023-09-12T01:54:54;19.20;99.90
43087;DHT22;28708;52.224;6.924;2023-09-12T01:57:21;19.10;99.90
43087;DHT22;28708;52.224;6.924;2023-09-12T01:59:50;19.20;99.90
43087;DHT22;28708;52.224;6.924;2023-09-12T02:02:16;19.10;99.90
43087;DHT22;28708;52.224;6.924;2023-09-12T02:04:46;19.10;99.90
43087;DHT22;28708;52.224;6.924;2023-09-12T02:07:16;19.10;99.90
43087;DHT22;28708;52.224;6.924;2023-09-12T02:09:42;19.10;99.90
43087;DHT22;28708;52.224;6.924;2023-09-12T02:12:07;19.10;99.90
43087;DHT22;28708;52.224;6.924;2023-09-12T02:14:34;19.10;99.90
43087;DHT22;28708;52.224;6.924;2023-09-12T02:17:00;19.20;99.90
43087;DHT22;28708;52.224;6.924;2023-09-12T02:19:26;19.00;99.90
43087;DHT22;28708;52.224;6.924;2023-09-12T02:21:51;19.00;99.90
43087;DHT22;28708;52.224;6.924;2023-09-12T02:24:17;19.00;99.90
43087;DHT22;28708;52.224;6.924;2023-09-12T02:26:44;19.20;99.90
43087;DHT22;28708;52.224;6.924;2023-09-12T02:29:09;19.20;99.90
43087;DHT22;28708;52.224;6.924;2023-09-12T02:31:35;19.20;99.90
43087;DHT22;28708;52.224;6.924;2023-09-12T02:34:01;19.10;99.90
43087;DHT22;28708;52.224;6.924;2023-09-12T02:36:28;19.10;99.90
43087;DHT22;28708;52.224;6.924;2023-09-12T02:38:54;18.90;99.90
43087;DHT22;28708;52.224;6.924;2023-09-12T02:41:20;19.00;99.90
43087;DHT22;28708;52.224;6.924;2023-09-12T02:43:45;19.00;99.90
43087;DHT22;28708;52.224;6.924;2023-09-12T02:46:11;19.10;99.90
43087;DHT22;28708;52.224;6.924;2023-09-12T02:48:37;19.10;99.90
43087;DHT22;28708;52.224;6.924;2023-09-12T02:51:02;19.00;99.90
43087;DHT22;28708;52.224;6.924;2023-09-12T02:53:28;18.90;99.90
43087;DHT22;28708;52.224;6.924;2023-09-12T02:55:53;19.00;99.90
43087;DHT22;28708;52.224;6.924;2023-09-12T02:58:20;18.80;99.90
43087;DHT22;28708;52.224;6.924;2023-09-12T03:00:45;19.00;99.90
43087;DHT22;28708;52.224;6.924;2023-09-12T03:03:11;19.00;99.90
43087;DHT22;28708;52.224;6.924;2023-09-12T03:05:38;19.00;99.90
43087;DHT22;28708;52.224;6.924;2023-09-12T03:08:03;19.00;99.90
43087;DHT22;28708;52.224;6.924;2023-09-12T03:10:29;19.00;99.90
43087;DHT22;28708;52.224;6.924;2023-09-12T03:12:55;19.00;99.90
43087;DHT22;28708;52.224;6.924;2023-09-12T03:15:21;19.00;99.90
43087;DHT22;28708;52.224;6.924;2023-09-12T03:17:46;18.90;99.90
43087;DHT22;28708;52.224;6.924;2023-09-12T03:20:12;18.90;99.90
43087;DHT22;28708;52.224;6.924;2023-09-12T03:22:38;18.90;99.90
43087;DHT22;28708;52.224;6.924;2023-09-12T03:25:05;18.90;99.90
43087;DHT22;28708;52.224;6.924;2023-09-12T03:27:31;19.00;99.90
43087;DHT22;28708;52.224;6.924;2023-09-12T03:29:58;19.00;99.90
43087;DHT22;28708;52.224;6.924;2023-09-12T03:32:24;19.10;99.90
43087;DHT22;28708;52.224;6.924;2023-09-12T03:34:50;19.00;99.90
43087;DHT22;28708;52.224;6.924;2023-09-12T03:37:16;18.90;99.90
43087;DHT22;28708;52.224;6.924;2023-09-12T03:39:42;19.00;99.90
43087;DHT22;28708;52.224;6.924;2023-09-12T03:42:08;18.80;99.90
43087;DHT22;28708;52.224;6.924;2023-09-12T03:44:34;18.90;99.90
43087;DHT22;28708;52.224;6.924;2023-09-12T03:46:59;19.00;99.90
43087;DHT22;28708;52.224;6.924;2023-09-12T03:49:25;18.90;99.90
43087;DHT22;28708;52.224;6.924;2023-09-12T03:51:51;19.00;99.90
43087;DHT22;28708;52.224;6.924;2023-09-12T03:54:17;19.00;99.90
43087;DHT22;28708;52.224;6.924;2023-09-12T03:56:42;19.10;99.90
43087;DHT22;28708;52.224;6.924;2023-09-12T03:59:08;19.10;99.90
43087;DHT22;28708;52.224;6.924;2023-09-12T04:01:34;19.10;99.90
43087;DHT22;28708;52.224;6.924;2023-09-12T04:04:00;19.00;99.90
43087;DHT22;28708;52.224;6.924;2023-09-12T04:06:26;19.00;99.90
43087;DHT22;28708;52.224;6.924;2023-09-12T04:08:51;18.90;99.90
43087;DHT22;28708;52.224;6.924;2023-09-12T04:11:17;18.90;99.90
43087;DHT22;28708;52.224;6.924;2023-09-12T04:13:43;18.90;99.90
43087;DHT22;28708;52.224;6.924;2023-09-12T04:16:09;19.00;99.90
43087;DHT22;28708;52.224;6.924;2023-09-12T04:18:38;18.90;99.90
43087;DHT22;28708;52.224;6.924;2023-09-12T04:21:04;18.90;99.90
43087;DHT22;28708;52.224;6.924;2023-09-12T04:23:30;19.00;99.90
43087;DHT22;28708;52.224;6.924;2023-09-12T04:25:55;18.90;99.90
43087;DHT22;28708;52.224;6.924;2023-09-12T04:28:21;18.90;99.90
43087;DHT22;28708;52.224;6.924;2023-09-12T04:30:47;18.80;99.90
43087;DHT22;28708;52.224;6.924;2023-09-12T04:33:13;18.90;99.90
43087;DHT22;28708;52.224;6.924;2023-09-12T04:35:39;18.90;99.90
43087;DHT22;28708;52.224;6.924;2023-09-12T04:38:05;18.90;99.90
43087;DHT22;28708;52.224;6.924;2023-09-12T04:40:30;18.90;99.90
43087;DHT22;28708;52.224;6.924;2023-09-12T04:42:56;18.90;99.90
43087;DHT22;28708;52.224;6.924;2023-09-12T04:45:22;18.80;99.90
43087;DHT22;28708;52.224;6.924;2023-09-12T04:47:48;18.80;99.90
43087;DHT22;28708;52.224;6.924;2023-09-12T04:50:14;18.80;99.90
43087;DHT22;28708;52.224;6.924;2023-09-12T04:52:40;18.80;99.90
43087;DHT22;28708;52.224;6.924;2023-09-12T04:55:05;18.80;99.90
43087;DHT22;28708;52.224;6.924;2023-09-12T04:57:31;18.70;99.90
43087;DHT22;28708;52.224;6.924;2023-09-12T04:59:58;18.80;99.90
43087;DHT22;28708;52.224;6.924;2023-09-12T05:02:24;18.80;99.90
43087;DHT22;28708;52.224;6.924;2023-09-12T05:04:51;18.80;99.90
43087;DHT22;28708;52.224;6.924;2023-09-12T05:07:17;18.80;99.90
43087;DHT22;28708;52.224;6.924;2023-09-12T05:09:42;18.70;99.90
43087;DHT22;28708;52.224;6.924;2023-09-12T05:12:08;18.80;99.90
43087;DHT22;28708;52.224;6.924;2023-09-12T05:14:34;18.70;99.90
43087;DHT22;28708;52.224;6.924;2023-09-12T05:17:00;18.60;99.90
43087;DHT22;28708;52.224;6.924;2023-09-12T05:19:29;18.50;99.90
43087;DHT22;28708;52.224;6.924;2023-09-12T05:21:55;18.70;99.90
43087;DHT22;28708;52.224;6.924;2023-09-12T05:24:20;18.60;99.90
43087;DHT22;28708;52.224;6.924;2023-09-12T05:26:49;18.50;99.90
43087;DHT22;28708;52.224;6.924;2023-09-12T05:29:15;18.50;99.90
43087;DHT22;28708;52.224;6.924;2023-09-12T05:31:41;18.50;99.90
43087;DHT22;28708;52.224;6.924;2023-09-12T05:34:07;18.70;99.90
43087;DHT22;28708;52.224;6.924;2023-09-12T05:36:33;18.80;99.90
43087;DHT22;28708;52.224;6.924;2023-09-12T05:38:58;18.80;99.90
43087;DHT22;28708;52.224;6.924;2023-09-12T05:41:24;18.80;99.90
43087;DHT22;28708;52.224;6.924;2023-09-12T05:43:50;18.80;99.90
43087;DHT22;28708;52.224;6.924;2023-09-12T05:46:15;18.70;99.90
43087;DHT22;28708;52.224;6.924;2023-09-12T05:48:41;18.70;99.90
43087;DHT22;28708;52.224;6.924;2023-09-12T05:51:07;18.80;99.90
43087;DHT22;28708;52.224;6.924;2023-09-12T05:53:32;18.70;99.90
43087;DHT22;28708;52.224;6.924;2023-09-12T05:55:58;18.70;99.90
43087;DHT22;28708;52.224;6.924;2023-09-12T05:58:24;18.70;99.90
43087;DHT22;28708;52.224;6.924;2023-09-12T06:00:50;18.70;99.90
43087;DHT22;28708;52.224;6.924;2023-09-12T06:03:16;18.70;99.90
43087;DHT22;28708;52.224;6.924;2023-09-12T06:05:42;18.80;99.90
43087;DHT22;28708;52.224;6.924;2023-09-12T06:08:07;19.00;99.90
43087;DHT22;28708;52.224;6.924;2023-09-12T06:10:33;18.90;99.90
43087;DHT22;28708;52.224;6.924;2023-09-12T06:12:59;18.90;99.90
43087;DHT22;28708;52.224;6.924;2023-09-12T06:15:25;18.90;99.90
43087;DHT22;28708;52.224;6.924;2023-09-12T06:17:50;19.00;99.90
43087;DHT22;28708;52.224;6.924;2023-09-12T06:20:16;19.20;99.90
43087;DHT22;28708;52.224;6.924;2023-09-12T06:22:42;19.20;99.90
43087;DHT22;28708;52.224;6.924;2023-09-12T06:25:08;19.10;99.90
43087;DHT22;28708;52.224;6.924;2023-09-12T06:27:35;19.10;99.90
43087;DHT22;28708;52.224;6.924;2023-09-12T06:30:01;19.20;99.90
43087;DHT22;28708;52.224;6.924;2023-09-12T06:32:27;18.90;99.90
43087;DHT22;28708;52.224;6.924;2023-09-12T06:34:52;18.80;99.90
43087;DHT22;28708;52.224;6.924;2023-09-12T06:37:18;18.80;99.90
43087;DHT22;28708;52.224;6.924;2023-09-12T06:39:44;19.00;99.90
43087;DHT22;28708;52.224;6.924;2023-09-12T06:42:09;19.10;99.90
43087;DHT22;28708;52.224;6.924;2023-09-12T06:44:35;19.10;99.90
43087;DHT22;28708;52.224;6.924;2023-09-12T06:47:03;19.00;99.90
43087;DHT22;28708;52.224;6.924;2023-09-12T06:49:29;18.70;99.90
43087;DHT22;28708;52.224;6.924;2023-09-12T06:51:57;18.90;99.90
43087;DHT22;28708;52.224;6.924;2023-09-12T06:54:23;18.90;99.90
43087;DHT22;28708;52.224;6.924;2023-09-12T06:56:48;18.90;99.90
43087;DHT22;28708;52.224;6.924;2023-09-12T06:59:14;18.90;99.90
43087;DHT22;28708;52.224;6.924;2023-09-12T07:01:40;18.90;99.90
43087;DHT22;28708;52.224;6.924;2023-09-12T07:04:06;18.80;99.90
43087;DHT22;28708;52.224;6.924;2023-09-12T07:06:31;18.70;99.90
43087;DHT22;28708;52.224;6.924;2023-09-12T07:08:58;18.70;99.90
43087;DHT22;28708;52.224;6.924;2023-09-12T07:11:23;18.70;99.90
43087;DHT22;28708;52.224;6.924;2023-09-12T07:13:49;18.70;99.90
43087;DHT22;28708;52.224;6.924;2023-09-12T07:16:15;18.70;99.90
43087;DHT22;28708;52.224;6.924;2023-09-12T07:18:41;18.60;99.90
43087;DHT22;28708;52.224;6.924;2023-09-12T07:21:07;18.60;99.90
43087;DHT22;28708;52.224;6.924;2023-09-12T07:23:33;18.60;99.90
43087;DHT22;28708;52.224;6.924;2023-09-12T07:25:58;18.60;99.90
43087;DHT22;28708;52.224;6.924;2023-09-12T07:28:25;18.50;99.90
43087;DHT22;28708;52.224;6.924;2023-09-12T07:30:51;18.50;99.90
43087;DHT22;28708;52.224;6.924;2023-09-12T07:33:17;18.50;99.90
43087;DHT22;28708;52.224;6.924;2023-09-12T07:35:42;18.50;99.90
43087;DHT22;28708;52.224;6.924;2023-09-12T07:38:08;18.50;99.90
43087;DHT22;28708;52.224;6.924;2023-09-12T07:40:34;18.60;99.90
43087;DHT22;28708;52.224;6.924;2023-09-12T07:42:59;18.80;99.90
43087;DHT22;28708;52.224;6.924;2023-09-12T07:45:25;18.90;99.90
43087;DHT22;28708;52.224;6.924;2023-09-12T07:47:51;18.90;99.90
43087;DHT22;28708;52.224;6.924;2023-09-12T07:50:17;18.80;99.90
43087;DHT22;28708;52.224;6.924;2023-09-12T07:52:42;18.90;99.90
43087;DHT22;28708;52.224;6.924;2023-09-12T07:55:08;19.00;99.90
43087;DHT22;28708;52.224;6.924;2023-09-12T07:57:34;19.10;99.90
43087;DHT22;28708;52.224;6.924;2023-09-12T08:00:03;19.10;99.90
43087;DHT22;28708;52.224;6.924;2023-09-12T08:02:37;19.20;99.90
43087;DHT22;28708;52.224;6.924;2023-09-12T08:05:03;19.10;99.90
43087;DHT22;28708;52.224;6.924;2023-09-12T08:07:29;19.10;99.90
43087;DHT22;28708;52.224;6.924;2023-09-12T08:09:57;19.20;99.90
43087;DHT22;28708;52.224;6.924;2023-09-12T08:12:24;19.30;99.90
43087;DHT22;28708;52.224;6.924;2023-09-12T08:14:56;19.30;99.90
43087;DHT22;28708;52.224;6.924;2023-09-12T08:17:22;19.30;99.90
43087;DHT22;28708;52.224;6.924;2023-09-12T08:19:48;19.30;99.90
43087;DHT22;28708;52.224;6.924;2023-09-12T08:22:14;19.30;99.90
43087;DHT22;28708;52.224;6.924;2023-09-12T08:24:40;19.30;99.90
43087;DHT22;28708;52.224;6.924;2023-09-12T08:27:06;19.40;99.90
43087;DHT22;28708;52.224;6.924;2023-09-12T08:29:33;19.30;99.90
43087;DHT22;28708;52.224;6.924;2023-09-12T08:31:59;19.30;99.90
43087;DHT22;28708;52.224;6.924;2023-09-12T08:34:25;19.40;99.90
43087;DHT22;28708;52.224;6.924;2023-09-12T08:36:51;19.50;99.90
43087;DHT22;28708;52.224;6.924;2023-09-12T08:39:23;19.60;99.90
43087;DHT22;28708;52.224;6.924;2023-09-12T08:41:50;19.60;99.90
43087;DHT22;28708;52.224;6.924;2023-09-12T08:44:15;19.50;99.90
43087;DHT22;28708;52.224;6.924;2023-09-12T08:46:42;19.60;99.90
43087;DHT22;28708;52.224;6.924;2023-09-12T08:49:08;19.60;99.90
43087;DHT22;28708;52.224;6.924;2023-09-12T08:51:38;19.70;99.90
43087;DHT22;28708;52.224;6.924;2023-09-12T08:54:05;19.80;99.90
43087;DHT22;28708;52.224;6.924;2023-09-12T08:56:36;19.70;99.90
43087;DHT22;28708;52.224;6.924;2023-09-12T08:59:02;19.70;99.90
43087;DHT22;28708;52.224;6.924;2023-09-12T09:01:30;19.80;99.90
43087;DHT22;28708;52.224;6.924;2023-09-12T09:03:57;20.00;99.90
43087;DHT22;28708;52.224;6.924;2023-09-12T09:06:23;20.20;99.90
43087;DHT22;28708;52.224;6.924;2023-09-12T09:08:50;20.50;99.90
43087;DHT22;28708;52.224;6.924;2023-09-12T09:11:16;20.60;99.90
43087;DHT22;28708;52.224;6.924;2023-09-12T09:13:42;20.50;99.90
43087;DHT22;28708;52.224;6.924;2023-09-12T09:16:18;20.50;99.90
43087;DHT22;28708;52.224;6.924;2023-09-12T09:18:56;20.70;99.90
43087;DHT22;28708;52.224;6.924;2023-09-12T09:21:28;20.80;99.90
43087;DHT22;28708;52.224;6.924;2023-09-12T09:23:58;20.90;99.90
43087;DHT22;28708;52.224;6.924;2023-09-12T09:26:23;20.90;99.90
43087;DHT22;28708;52.224;6.924;2023-09-12T09:29:16;20.90;99.90
43087;DHT22;28708;52.224;6.924;2023-09-12T09:31:44;21.00;99.90
43087;DHT22;28708;52.224;6.924;2023-09-12T09:34:14;21.30;99.90
43087;DHT22;28708;52.224;6.924;2023-09-12T09:36:44;21.50;99.90
43087;DHT22;28708;52.224;6.924;2023-09-12T09:39:10;21.30;99.90
43087;DHT22;28708;52.224;6.924;2023-09-12T09:41:37;21.00;99.90
43087;DHT22;28708;52.224;6.924;2023-09-12T09:44:05;21.30;99.90
43087;DHT22;28708;52.224;6.924;2023-09-12T09:46:31;21.80;99.90
43087;DHT22;28708;52.224;6.924;2023-09-12T09:48:58;22.40;99.90
43087;DHT22;28708;52.224;6.924;2023-09-12T09:51:25;22.70;99.90
43087;DHT22;28708;52.224;6.924;2023-09-12T09:53:52;23.20;99.90
43087;DHT22;28708;52.224;6.924;2023-09-12T09:56:18;23.30;99.90
43087;DHT22;28708;52.224;6.924;2023-09-12T09:58:47;22.50;99.90
43087;DHT22;28708;52.224;6.924;2023-09-12T10:01:19;22.70;99.90
43087;DHT22;28708;52.224;6.924;2023-09-12T10:03:46;23.40;99.90
43087;DHT22;28708;52.224;6.924;2023-09-12T10:06:16;24.40;99.90
43087;DHT22;28708;52.224;6.924;2023-09-12T10:08:44;25.10;99.90
43087;DHT22;28708;52.224;6.924;2023-09-12T10:11:13;26.10;99.90
43087;DHT22;28708;52.224;6.924;2023-09-12T10:13:45;25.50;99.90
43087;DHT22;28708;52.224;6.924;2023-09-12T10:16:12;25.10;99.90
43087;DHT22;28708;52.224;6.924;2023-09-12T10:19:13;25.80;99.90
43087;DHT22;28708;52.224;6.924;2023-09-12T10:21:54;26.40;99.90
43087;DHT22;28708;52.224;6.924;2023-09-12T10:24:25;27.20;99.90
43087;DHT22;28708;52.224;6.924;2023-09-12T10:26:52;26.40;99.90
43087;DHT22;28708;52.224;6.924;2023-09-12T10:29:18;25.20;99.90
43087;DHT22;28708;52.224;6.924;2023-09-12T10:31:44;25.50;99.90
43087;DHT22;28708;52.224;6.924;2023-09-12T10:34:12;25.10;99.90
43087;DHT22;28708;52.224;6.924;2023-09-12T10:36:40;25.20;99.90
43087;DHT22;28708;52.224;6.924;2023-09-12T10:39:06;24.70;99.90
43087;DHT22;28708;52.224;6.924;2023-09-12T10:41:33;25.10;99.90
43087;DHT22;28708;52.224;6.924;2023-09-12T10:44:05;24.30;99.90
43087;DHT22;28708;52.224;6.924;2023-09-12T10:46:36;23.60;99.90
43087;DHT22;28708;52.224;6.924;2023-09-12T10:49:09;23.50;99.90
43087;DHT22;28708;52.224;6.924;2023-09-12T10:51:46;23.40;99.90
43087;DHT22;28708;52.224;6.924;2023-09-12T10:54:14;23.50;99.90
43087;DHT22;28708;52.224;6.924;2023-09-12T10:56:40;23.10;99.90
43087;DHT22;28708;52.224;6.924;2023-09-12T11:01:42;23.40;99.90
43087;DHT22;28708;52.224;6.924;2023-09-12T11:06:47;24.90;99.90
43087;DHT22;28708;52.224;6.924;2023-09-12T11:09:21;23.80;99.90
43087;DHT22;28708;52.224;6.924;2023-09-12T11:11:48;23.40;99.90
43087;DHT22;28708;52.224;6.924;2023-09-12T11:14:15;23.50;99.90
43087;DHT22;28708;52.224;6.924;2023-09-12T11:16:42;24.80;99.90
43087;DHT22;28708;52.224;6.924;2023-09-12T11:19:22;25.80;99.90
43087;DHT22;28708;52.224;6.924;2023-09-12T11:21:53;26.70;99.90
43087;DHT22;28708;52.224;6.924;2023-09-12T11:24:20;27.30;99.90
43087;DHT22;28708;52.224;6.924;2023-09-12T11:26:56;26.60;99.90
43087;DHT22;28708;52.224;6.924;2023-09-12T11:29:36;27.50;99.90
43087;DHT22;28708;52.224;6.924;2023-09-12T11:32:03;27.40;99.90
43087;DHT22;28708;52.224;6.924;2023-09-12T11:34:35;27.10;99.90
43087;DHT22;28708;52.224;6.924;2023-09-12T11:37:02;26.10;99.90
43087;DHT22;28708;52.224;6.924;2023-09-12T11:39:31;25.40;99.90
43087;DHT22;28708;52.224;6.924;2023-09-12T11:41:57;25.00;99.90
43087;DHT22;28708;52.224;6.924;2023-09-12T11:44:24;25.00;99.90
43087;DHT22;28708;52.224;6.924;2023-09-12T11:46:52;24.80;99.90
43087;DHT22;28708;52.224;6.924;2023-09-12T11:49:18;24.80;99.90
43087;DHT22;28708;52.224;6.924;2023-09-12T11:51:52;24.70;99.90
43087;DHT22;28708;52.224;6.924;2023-09-12T11:54:20;24.80;99.90
43087;DHT22;28708;52.224;6.924;2023-09-12T11:56:49;24.80;99.90
43087;DHT22;28708;52.224;6.924;2023-09-12T11:59:15;24.50;99.90
43087;DHT22;28708;52.224;6.924;2023-09-12T12:01:45;24.20;99.90
43087;DHT22;28708;52.224;6.924;2023-09-12T12:04:11;24.60;99.90
43087;DHT22;28708;52.224;6.924;2023-09-12T12:06:37;24.60;99.90
43087;DHT22;28708;52.224;6.924;2023-09-12T12:09:03;24.70;99.90
43087;DHT22;28708;52.224;6.924;2023-09-12T12:11:30;24.50;99.90
43087;DHT22;28708;52.224;6.924;2023-09-12T12:13:57;24.50;99.90
43087;DHT22;28708;52.224;6.924;2023-09-12T12:16:24;24.60;99.90
43087;DHT22;28708;52.224;6.924;2023-09-12T12:18:50;24.40;99.90
43087;DHT22;28708;52.224;6.924;2023-09-12T12:21:20;24.30;99.90
43087;DHT22;28708;52.224;6.924;2023-09-12T12:23:46;24.20;99.90
43087;DHT22;28708;52.224;6.924;2023-09-12T12:26:11;24.40;99.90
43087;DHT22;28708;52.224;6.924;2023-09-12T12:28:38;24.50;99.90
43087;DHT22;28708;52.224;6.924;2023-09-12T12:31:04;24.50;99.90
43087;DHT22;28708;52.224;6.924;2023-09-12T12:33:30;24.60;99.90
43087;DHT22;28708;52.224;6.924;2023-09-12T12:36:04;24.70;99.90
43087;DHT22;28708;52.224;6.924;2023-09-12T12:38:37;24.90;99.90
43087;DHT22;28708;52.224;6.924;2023-09-12T12:41:03;24.90;99.90
43087;DHT22;28708;52.224;6.924;2023-09-12T12:43:30;25.10;99.90
43087;DHT22;28708;52.224;6.924;2023-09-12T12:45:58;25.10;99.90
43087;DHT22;28708;52.224;6.924;2023-09-12T12:48:34;25.30;99.90
43087;DHT22;28708;52.224;6.924;2023-09-12T12:51:14;25.20;99.90
43087;DHT22;28708;52.224;6.924;2023-09-12T12:53:44;25.10;99.90
43087;DHT22;28708;52.224;6.924;2023-09-12T12:56:15;25.20;99.90
43087;DHT22;28708;52.224;6.924;2023-09-12T13:01:13;25.20;99.90
43087;DHT22;28708;52.224;6.924;2023-09-12T13:03:40;25.30;99.90
43087;DHT22;28708;52.224;6.924;2023-09-12T13:06:07;25.40;99.90
43087;DHT22;28708;52.224;6.924;2023-09-12T13:08:39;25.50;99.90
43087;DHT22;28708;52.224;6.924;2023-09-12T13:11:06;25.00;99.90
43087;DHT22;28708;52.224;6.924;2023-09-12T13:13:32;25.40;99.90
43087;DHT22;28708;52.224;6.924;2023-09-12T13:15:57;25.50;99.90
43087;DHT22;28708;52.224;6.924;2023-09-12T13:18:23;25.60;99.90
43087;DHT22;28708;52.224;6.924;2023-09-12T13:20:49;25.50;99.90
43087;DHT22;28708;52.224;6.924;2023-09-12T13:23:14;25.50;99.90
43087;DHT22;28708;52.224;6.924;2023-09-12T13:25:40;25.60;99.90
43087;DHT22;28708;52.224;6.924;2023-09-12T13:28:06;25.50;99.90
43087;DHT22;28708;52.224;6.924;2023-09-12T13:30:31;25.50;99.90
43087;DHT22;28708;52.224;6.924;2023-09-12T13:32:57;25.00;99.90
43087;DHT22;28708;52.224;6.924;2023-09-12T13:35:23;25.00;99.90
43087;DHT22;28708;52.224;6.924;2023-09-12T13:37:48;25.20;99.90
43087;DHT22;28708;52.224;6.924;2023-09-12T13:40:14;25.40;99.90
43087;DHT22;28708;52.224;6.924;2023-09-12T13:42:40;25.30;99.90
43087;DHT22;28708;52.224;6.924;2023-09-12T13:45:06;25.20;99.90
43087;DHT22;28708;52.224;6.924;2023-09-12T13:47:31;25.30;99.90
43087;DHT22;28708;52.224;6.924;2023-09-12T13:49:58;25.50;99.90
43087;DHT22;28708;52.224;6.924;2023-09-12T13:52:26;25.80;99.90
43087;DHT22;28708;52.224;6.924;2023-09-12T13:54:52;26.00;99.90
43087;DHT22;28708;52.224;6.924;2023-09-12T13:57:18;25.70;99.90
43087;DHT22;28708;52.224;6.924;2023-09-12T13:59:44;25.60;99.90
43087;DHT22;28708;52.224;6.924;2023-09-12T14:02:10;25.90;99.90
43087;DHT22;28708;52.224;6.924;2023-09-12T14:04:35;26.20;99.90
43087;DHT22;28708;52.224;6.924;2023-09-12T14:07:01;26.40;99.90
43087;DHT22;28708;52.224;6.924;2023-09-12T14:09:28;26.40;99.90
43087;DHT22;28708;52.224;6.924;2023-09-12T14:11:54;26.20;99.90
43087;DHT22;28708;52.224;6.924;2023-09-12T14:14:19;25.80;99.90
43087;DHT22;28708;52.224;6.924;2023-09-12T14:16:45;25.50;99.90
43087;DHT22;28708;52.224;6.924;2023-09-12T14:19:11;25.20;99.90
43087;DHT22;28708;52.224;6.924;2023-09-12T14:21:37;25.10;99.90
43087;DHT22;28708;52.224;6.924;2023-09-12T14:24:03;25.10;99.90
43087;DHT22;28708;52.224;6.924;2023-09-12T14:26:29;25.00;99.90
43087;DHT22;28708;52.224;6.924;2023-09-12T14:28:55;24.90;99.90
43087;DHT22;28708;52.224;6.924;2023-09-12T14:31:22;24.80;99.90
43087;DHT22;28708;52.224;6.924;2023-09-12T14:33:49;24.70;99.90
43087;DHT22;28708;52.224;6.924;2023-09-12T14:36:14;24.50;99.90
43087;DHT22;28708;52.224;6.924;2023-09-12T14:38:40;24.30;99.90
43087;DHT22;28708;52.224;6.924;2023-09-12T14:41:06;24.30;99.90
43087;DHT22;28708;52.224;6.924;2023-09-12T14:43:31;24.30;99.90
43087;DHT22;28708;52.224;6.924;2023-09-12T14:45:57;24.20;99.90
43087;DHT22;28708;52.224;6.924;2023-09-12T14:48:23;24.10;99.90
43087;DHT22;28708;52.224;6.924;2023-09-12T14:50:48;24.10;99.90
43087;DHT22;28708;52.224;6.924;2023-09-12T14:53:15;24.00;99.90
43087;DHT22;28708;52.224;6.924;2023-09-12T14:55:42;24.00;99.90
43087;DHT22;28708;52.224;6.924;2023-09-12T14:58:08;24.00;99.90
43087;DHT22;28708;52.224;6.924;2023-09-12T15:00:33;23.90;99.90
43087;DHT22;28708;52.224;6.924;2023-09-12T15:03:00;23.90;99.90
43087;DHT22;28708;52.224;6.924;2023-09-12T15:05:26;23.80;99.90
43087;DHT22;28708;52.224;6.924;2023-09-12T15:07:52;23.80;99.90
43087;DHT22;28708;52.224;6.924;2023-09-12T15:10:18;23.70;99.90
43087;DHT22;28708;52.224;6.924;2023-09-12T15:12:44;23.70;99.90
43087;DHT22;28708;52.224;6.924;2023-09-12T15:15:10;23.80;99.90
43087;DHT22;28708;52.224;6.924;2023-09-12T15:17:36;23.70;99.90
43087;DHT22;28708;52.224;6.924;2023-09-12T15:20:01;23.70;99.90
43087;DHT22;28708;52.224;6.924;2023-09-12T15:22:31;23.70;99.90
43087;DHT22;28708;52.224;6.924;2023-09-12T15:24:57;23.70;99.90
43087;DHT22;28708;52.224;6.924;2023-09-12T15:27:23;23.60;99.90
43087;DHT22;28708;52.224;6.924;2023-09-12T15:29:49;23.50;99.90
43087;DHT22;28708;52.224;6.924;2023-09-12T15:32:14;23.60;99.90
43087;DHT22;28708;52.224;6.924;2023-09-12T15:34:40;23.70;99.90
43087;DHT22;28708;52.224;6.924;2023-09-12T15:37:08;24.00;99.90
43087;DHT22;28708;52.224;6.924;2023-09-12T15:39:34;24.20;99.90
43087;DHT22;28708;52.224;6.924;2023-09-12T15:42:00;24.40;99.90